Time,TemperatureF,DewpointF,PressureIn,WindDirection,WindDirectionDegrees,WindSpeedMPH,WindSpeedGustMPH,Humidity,HourlyPrecipIn,Conditions,Clouds,dailyrainin,SolarRadiationWatts/m^2,SoftwareType,DateUTC
2013-04-05 00:00:00,36.0,30.0,29.90,ESE,116,10.0,-999.0,78,-99.99,,,-99.99,0.050000,,2013-04-05 06:00:00,
2013-04-05 00:52:00,36.0,30.0,29.90,ESE,116,10.0,-999.0,78,-99.99,,,-99.99,0.050000,,2013-04-05 06:52:00,
2013-04-05 02:00:00,36.0,29.0,29.86,ESE,120,8.0,-999.0,75,-99.99,,,-99.99,0.040000,,2013-04-05 08:00:00,
2013-04-05 02:52:00,36.0,29.0,29.86,ESE,120,8.0,-999.0,75,-99.99,,,-99.99,0.040000,,2013-04-05 08:52:00,
2013-04-05 03:00:00,36.0,27.0,29.83,ESE,111,8.0,-999.0,69,-99.99,,,-99.99,0.030000,,2013-04-05 09:00:00,
2013-04-05 03:53:00,36.0,27.0,29.83,ESE,111,8.0,-999.0,69,-99.99,,,-99.99,0.030000,,2013-04-05 09:53:00,
2013-04-05 04:00:00,36.0,27.0,29.79,ESE,115,10.0,-999.0,69,-99.99,,,-99.99,0.040000,,2013-04-05 10:00:00,
2013-04-05 04:53:00,36.0,27.0,29.79,ESE,115,10.0,-999.0,69,-99.99,,,-99.99,0.040000,,2013-04-05 10:53:00,
2013-04-05 05:00:00,34.0,26.0,29.77,ESE,122,8.0,-999.0,71,-99.99,,,-99.99,0.030000,,2013-04-05 11:00:00,
2013-04-05 05:52:00,34.0,26.0,29.77,ESE,122,8.0,-999.0,71,-99.99,,,-99.99,0.030000,,2013-04-05 11:52:00,
2013-04-05 06:00:00,35.0,26.0,29.75,ESE,112,7.0,-999.0,71,-99.99,,,-99.99,0.020000,,2013-04-05 12:00:00,
2013-04-05 06:52:00,35.0,26.0,29.75,ESE,112,7.0,-999.0,71,-99.99,,,-99.99,0.020000,,2013-04-05 12:52:00,
2013-04-05 09:00:00,39.0,27.0,29.69,SSE,148,12.0,-999.0,62,-99.99,,,-99.99,161.199997,,2013-04-05 15:00:00,
2013-04-05 09:54:00,39.0,27.0,29.69,SSE,148,12.0,-999.0,62,-99.99,,,-99.99,161.199997,,2013-04-05 15:54:00,
2013-04-05 10:00:00,42.0,26.0,29.68,SSE,151,12.0,-999.0,54,-99.99,,,-99.99,367.399994,,2013-04-05 16:00:00,
2013-04-05 10:53:00,42.0,26.0,29.68,SSE,151,12.0,-999.0,54,-99.99,,,-99.99,367.399994,,2013-04-05 16:53:00,
2013-04-05 11:00:00,48.0,27.0,29.67,South,170,9.0,-999.0,45,-99.99,,,-99.99,468.000000,,2013-04-05 17:00:00,
2013-04-05 11:53:00,48.0,27.0,29.67,South,170,9.0,-999.0,45,-99.99,,,-99.99,468.000000,,2013-04-05 17:53:00,
2013-04-05 12:00:00,53.0,28.0,29.65,South,184,9.0,-999.0,38,-99.99,,,-99.99,579.200012,,2013-04-05 18:00:00,
2013-04-05 12:53:00,53.0,28.0,29.65,South,184,9.0,-999.0,38,-99.99,,,-99.99,579.200012,,2013-04-05 18:53:00,
2013-04-05 13:00:00,59.0,29.0,29.62,SSW,203,8.0,-999.0,32,-99.99,,,-99.99,627.299988,,2013-04-05 19:00:00,
2013-04-05 13:53:00,59.0,29.0,29.62,SSW,203,8.0,-999.0,32,-99.99,,,-99.99,627.299988,,2013-04-05 19:53:00,
2013-04-05 14:00:00,65.0,34.0,29.59,West,265,10.0,-999.0,32,-99.99,,,-99.99,619.900024,,2013-04-05 20:00:00,
2013-04-05 14:53:00,65.0,34.0,29.59,West,265,10.0,-999.0,32,-99.99,,,-99.99,619.900024,,2013-04-05 20:53:00,
2013-04-05 15:00:00,65.0,34.0,29.59,NW,316,14.0,-999.0,32,-99.99,,,-99.99,468.000000,,2013-04-05 21:00:00,
2013-04-05 15:55:00,65.0,34.0,29.59,NW,316,14.0,-999.0,32,-99.99,,,-99.99,468.000000,,2013-04-05 21:55:00,
2013-04-05 16:00:00,65.0,34.0,29.57,NW,317,12.0,-999.0,32,-99.99,,,-99.99,381.200012,,2013-04-05 22:00:00,
2013-04-05 16:53:00,65.0,34.0,29.57,NW,317,12.0,-999.0,32,-99.99,,,-99.99,381.200012,,2013-04-05 22:53:00,
2013-04-05 17:00:00,63.0,35.0,29.58,NW,325,11.0,-999.0,36,-99.99,,,-99.99,160.699997,,2013-04-05 23:00:00,
2013-04-05 17:53:00,63.0,35.0,29.58,NW,325,11.0,-999.0,36,-99.99,,,-99.99,160.699997,,2013-04-05 23:53:00,
2013-04-05 18:00:00,50.0,47.0,29.65,NW,305,14.0,-999.0,88,-99.99,,,-99.99,33.830002,,2013-04-06 00:00:00,
2013-04-05 18:52:00,50.0,47.0,29.65,NW,305,14.0,-999.0,88,-99.99,,,-99.99,33.830002,,2013-04-06 00:52:00,
2013-04-05 19:00:00,49.0,47.0,29.66,West,277,11.0,-999.0,91,-99.99,,,-99.99,15.350000,,2013-04-06 01:00:00,
2013-04-05 19:53:00,49.0,47.0,29.66,West,277,11.0,-999.0,91,-99.99,,,-99.99,15.350000,,2013-04-06 01:53:00,
2013-04-05 20:00:00,48.0,46.0,29.64,SSW,205,6.0,-999.0,92,-99.99,,,-99.99,1.680000,,2013-04-06 02:00:00,
2013-04-05 20:53:00,48.0,46.0,29.64,SSW,205,6.0,-999.0,92,-99.99,,,-99.99,1.680000,,2013-04-06 02:53:00,
2013-04-05 21:00:00,47.0,46.0,29.65,SSW,193,5.0,-999.0,95,-99.99,,,-99.99,0.120000,,2013-04-06 03:00:00,
2013-04-05 21:54:00,47.0,46.0,29.65,SSW,193,5.0,-999.0,95,-99.99,,,-99.99,0.120000,,2013-04-06 03:54:00,
2013-04-05 22:00:00,46.0,45.0,29.67,SSW,208,6.0,-999.0,95,-99.99,,,-99.99,0.090000,,2013-04-06 04:00:00,
2013-04-05 22:53:00,46.0,45.0,29.67,SSW,208,6.0,-999.0,95,-99.99,,,-99.99,0.090000,,2013-04-06 04:53:00,
2013-04-05 23:00:00,45.0,44.0,29.69,SW,235,8.0,-999.0,93,-99.99,,,-99.99,0.040000,,2013-04-06 05:00:00,
2013-04-05 23:52:00,45.0,44.0,29.69,SW,235,8.0,-999.0,93,-99.99,,,-99.99,0.040000,,2013-04-06 05:52:00,